Time;durP1;ratioP1;P1;durP2;ratioP2;P2;SDS_P1;SDS_P2;PMS_P1;PMS_P2;Temp;Humidity;BMP_temperature;BMP_pressure;BME280_temperature;BME280_humidity;BME280_pressure;Samples;Min_cycle;Max_cycle;Signal;HPM_P1;HPM_P2
2022/10/27 00:01:47;;;;;;;13.57;12.27;;;;;;;10.52;100.00;100252.59;6042627;23;20212;-91
2022/10/27 00:04:14;;;;;;;14.33;12.93;;;;;;;10.43;100.00;100253.81;6018952;23;20218;-91
2022/10/27 00:06:41;;;;;;;13.63;12.30;;;;;;;10.35;100.00;100259.38;6019604;23;20206;-90
2022/10/27 00:09:07;;;;;;;13.40;12.10;;;;;;;10.35;100.00;100270.09;6014504;23;20246;-91
2022/10/27 00:11:34;;;;;;;15.23;13.67;;;;;;;10.27;100.00;100267.56;6014458;23;20222;-90
2022/10/27 00:14:01;;;;;;;14.53;13.13;;;;;;;10.22;100.00;100269.22;6000997;23;20210;-88
2022/10/27 00:16:27;;;;;;;15.00;13.50;;;;;;;10.22;100.00;100279.94;6014387;23;20216;-90
2022/10/27 00:18:54;;;;;;;14.33;12.93;;;;;;;10.14;100.00;100276.38;6037920;23;20220;-90
2022/10/27 00:21:20;;;;;;;15.33;13.87;;;;;;;10.07;100.00;100278.22;6014289;23;20214;-88
2022/10/27 00:23:50;;;;;;;14.47;12.97;;;;;;;10.09;100.00;100280.66;6014155;23;20216;-88
2022/10/27 00:26:18;;;;;;;14.70;13.30;;;;;;;9.98;100.00;100290.13;6039457;23;20212;-88
2022/10/27 00:28:45;;;;;;;14.33;12.93;;;;;;;9.88;100.00;100280.78;6037956;23;20284;-88
2022/10/27 00:31:18;;;;;;;13.87;12.57;;;;;;;9.82;100.00;100278.91;6037488;23;20213;-88
2022/10/27 00:33:46;;;;;;;14.07;12.57;;;;;;;9.79;100.00;100285.50;6038021;23;20525;-90
2022/10/27 00:36:16;;;;;;;14.13;12.73;;;;;;;9.78;100.00;100293.72;6036953;23;20676;-89
2022/10/27 00:38:43;;;;;;;14.70;13.30;;;;;;;9.77;100.00;100278.66;6039812;23;20203;-88
2022/10/27 00:41:24;;;;;;;13.20;12.00;;;;;;;9.68;100.00;100289.56;6037686;23;20273;-88
2022/10/27 00:43:51;;;;;;;14.93;13.40;;;;;;;9.70;100.00;100284.81;6042186;23;20608;-87
2022/10/27 06:54:53;;;;;;;8.57;7.33;;;;;;;9.49;100.00;100517.63;6066212;23;20207;-79
2022/10/27 06:57:20;;;;;;;8.63;7.77;;;;;;;9.62;100.00;100517.75;6074280;23;20217;-83
2022/10/27 06:59:50;;;;;;;9.27;7.53;;;;;;;9.75;100.00;100532.28;6028976;23;20253;-84
2022/10/27 07:02:17;;;;;;;8.40;7.17;;;;;;;9.85;100.00;100522.88;6048143;23;20505;-84
2022/10/27 07:04:43;;;;;;;8.27;7.17;;;;;;;10.01;100.00;100521.78;6072057;23;20209;-84
2022/10/27 07:07:10;;;;;;;9.77;6.43;;;;;;;10.16;100.00;100522.56;6042949;23;20217;-82
2022/10/27 07:09:36;;;;;;;9.47;6.33;;;;;;;10.26;100.00;100520.38;6067932;23;20241;-82
2022/10/27 07:12:03;;;;;;;7.20;6.50;;;;;;;10.38;100.00;100532.19;6067395;23;20709;-82
2022/10/27 07:14:30;;;;;;;9.07;6.37;;;;;;;10.49;100.00;100525.44;6067851;23;20204;-81
2022/10/27 07:16:58;;;;;;;8.87;6.73;;;;;;;10.63;100.00;100539.75;6067884;23;20220;-83
2022/10/27 07:19:24;;;;;;;7.40;5.63;;;;;;;10.78;100.00;100537.78;6067795;23;20233;-82
2022/10/27 07:21:51;;;;;;;8.57;6.27;;;;;;;10.81;100.00;100540.88;6042511;23;20209;-82
2022/10/27 07:24:18;;;;;;;7.60;5.90;;;;;;;10.94;100.00;100540.94;6066875;23;20220;-83
2022/10/27 07:26:44;;;;;;;7.73;6.07;;;;;;;11.06;100.00;100535.00;6067770;23;20216;-82
2022/10/27 07:29:11;;;;;;;8.73;6.87;;;;;;;11.27;100.00;100548.28;6065870;23;20260;-82
2022/10/27 07:31:38;;;;;;;8.27;7.03;;;;;;;11.37;100.00;100546.88;6042425;23;20220;-82
2022/10/27 07:34:04;;;;;;;10.97;7.50;;;;;;;11.46;100.00;100551.00;6066953;23;20220;-84
2022/10/27 07:36:31;;;;;;;9.60;7.47;;;;;;;11.58;100.00;100548.53;6067711;23;20201;-83
2022/10/27 07:38:57;;;;;;;8.90;7.37;;;;;;;11.64;100.00;100546.91;6067132;23;20295;-87
2022/10/27 07:41:24;;;;;;;10.30;7.30;;;;;;;11.76;100.00;100547.97;6067353;23;20212;-85
2022/10/27 07:43:50;;;;;;;9.37;6.60;;;;;;;11.88;100.00;100552.56;6066844;23;20204;-89
2022/10/27 07:46:17;;;;;;;11.40;7.00;;;;;;;12.03;100.00;100546.97;6042639;23;20291;-91
2022/10/27 07:48:44;;;;;;;7.63;6.50;;;;;;;12.11;100.00;100554.81;5995994;23;20215;-91
2022/10/27 07:51:10;;;;;;;7.70;5.87;;;;;;;12.24;100.00;100556.66;6019218;23;20218;-91
2022/10/27 07:53:37;;;;;;;9.40;5.97;;;;;;;12.42;100.00;100546.09;6037900;23;20219;-90
2022/10/27 07:56:04;;;;;;;6.57;5.97;;;;;;;12.52;100.00;100551.88;6013816;23;20238;-88
2022/10/27 07:58:30;;;;;;;9.13;5.93;;;;;;;12.59;100.00;100552.72;6014481;23;20214;-91
2022/10/27 08:00:58;;;;;;;6.90;5.20;;;;;;;12.72;100.00;100551.84;5991090;23;20208;-90
2022/10/27 08:03:28;;;;;;;7.20;5.57;;;;;;;12.75;100.00;100546.84;6014885;23;20211;-91
2022/10/27 08:05:57;;;;;;;7.93;6.20;;;;;;;12.83;100.00;100555.75;5991603;23;20223;-92
2022/10/27 08:08:24;;;;;;;6.00;5.40;;;;;;;12.95;100.00;100551.34;6014392;23;20216;-91
2022/10/27 08:10:50;;;;;;;7.63;5.50;;;;;;;13.12;100.00;100555.22;6014406;23;20209;-91
2022/10/27 08:13:17;;;;;;;7.80;5.20;;;;;;;13.11;100.00;100559.00;6029339;23;20213;-91
2022/10/27 08:15:44;;;;;;;8.53;5.37;;;;;;;13.19;100.00;100564.13;5989631;23;20676;-91
2022/10/27 08:18:11;;;;;;;9.03;5.20;;;;;;;13.25;100.00;100562.44;6013768;23;20211;-91
2022/10/27 08:20:42;;;;;;;8.30;5.40;;;;;;;13.35;100.00;100558.22;6038082;23;20220;-91
2022/10/27 08:23:15;;;;;;;8.67;5.57;;;;;;;13.54;100.00;100562.69;6014496;23;20288;-91
2022/10/27 08:25:42;;;;;;;6.87;5.40;;;;;;;13.55;100.00;100552.75;5991394;23;20212;-91
2022/10/27 08:28:10;;;;;;;5.80;5.17;;;;;;;13.67;100.00;100556.38;5990298;23;20272;-90
2022/10/27 08:30:37;;;;;;;6.40;4.93;;;;;;;13.76;100.00;100556.97;5991078;23;20216;-90
2022/10/27 08:33:15;;;;;;;6.30;5.37;;;;;;;13.83;100.00;100555.88;6017250;23;20220;-90
2022/10/27 08:35:42;;;;;;;7.50;4.80;;;;;;;13.96;100.00;100553.06;6014576;23;20224;-91
2022/10/27 08:38:12;;;;;;;7.23;5.40;;;;;;;14.07;100.00;100554.22;5990976;23;20224;-91
2022/10/27 08:40:43;;;;;;;7.10;5.53;;;;;;;14.26;100.00;100549.72;6038516;23;20282;-91
2022/10/27 08:43:21;;;;;;;5.30;4.50;;;;;;;14.49;100.00;100558.03;5990749;23;20671;-90
2022/10/27 08:45:54;;;;;;;7.80;4.97;;;;;;;14.51;100.00;100556.75;6038078;23;20280;-91
2022/10/27 08:48:24;;;;;;;7.70;4.80;;;;;;;14.63;100.00;100561.41;5990474;23;20217;-91
2022/10/27 08:50:51;;;;;;;7.27;5.40;;;;;;;14.59;100.00;100558.34;6014124;23;20205;-92
2022/10/27 08:53:28;;;;;;;6.03;4.40;;;;;;;14.61;100.00;100556.22;6037905;23;20214;-92
2022/10/27 08:56:01;;;;;;;6.60;4.40;;;;;;;14.77;100.00;100561.06;6037856;23;20213;-92
2022/10/27 08:58:33;;;;;;;5.43;4.47;;;;;;;14.94;100.00;100562.09;6014218;23;20202;-91
2022/10/27 09:01:08;;;;;;;5.70;4.63;;;;;;;15.07;100.00;100555.69;6015042;23;20727;-91
2022/10/27 09:04:20;;;;;;;7.23;4.70;;;;;;;15.23;100.00;100551.56;5991413;23;20213;-92
2022/10/27 09:07:05;;;;;;;6.30;4.90;;;;;;;15.37;100.00;100550.34;6004942;23;20209;-91
2022/10/27 09:09:55;;;;;;;5.37;4.63;;;;;;;15.51;100.00;100568.03;6015361;23;20213;-91
2022/10/27 09:12:24;;;;;;;5.70;5.10;;;;;;;15.31;100.00;100559.34;6038106;23;20206;-91
2022/10/27 09:15:03;;;;;;;8.00;5.10;;;;;;;15.29;100.00;100559.59;6024942;23;20205;-92
2022/10/27 09:17:35;;;;;;;5.43;4.60;;;;;;;15.54;100.00;100564.09;5980340;23;20210;-91
2022/10/27 09:20:13;;;;;;;8.37;5.07;;;;;;;15.71;100.00;100555.09;6037667;23;20269;-90
2022/10/27 09:22:41;;;;;;;9.07;5.00;;;;;;;15.73;100.00;100558.38;6038493;23;20234;-91
2022/10/27 09:25:17;;;;;;;7.33;4.83;;;;;;;15.83;100.00;100557.81;6038247;23;20210;-91
2022/10/27 09:27:47;;;;;;;7.43;4.73;;;;;;;15.92;100.00;100564.53;6014355;23;20764;-92
2022/10/27 09:30:14;;;;;;;6.83;4.77;;;;;;;15.88;100.00;100567.91;5991228;23;20221;-91
2022/10/27 09:32:46;;;;;;;7.30;4.73;;;;;;;15.96;100.00;100568.41;5991536;23;20747;-91
2022/10/27 09:35:20;;;;;;;4.97;4.33;;;;;;;16.00;100.00;100566.91;5991612;23;20263;-91
2022/10/27 09:37:47;;;;;;;6.30;4.60;;;;;;;16.10;100.00;100569.84;6014338;23;20245;-91
2022/10/27 09:40:24;;;;;;;8.23;4.60;;;;;;;16.22;100.00;100564.47;6037550;23;20209;-89
2022/10/27 09:42:54;;;;;;;6.83;4.63;;;;;;;16.33;100.00;100562.84;6014758;23;20205;-88
2022/10/27 09:45:23;;;;;;;8.13;4.57;;;;;;;16.37;100.00;100556.72;5991497;23;20727;-89
2022/10/27 09:48:03;;;;;;;4.70;4.30;;;;;;;16.54;100.00;100567.63;6014223;23;20213;-89
2022/10/27 09:50:49;;;;;;;5.63;4.10;;;;;;;16.58;100.00;100566.97;6038061;23;20234;-88
2022/10/27 09:53:51;;;;;;;6.20;4.17;;;;;;;16.72;100.00;100565.66;6014427;23;20735;-88
2022/10/27 09:56:29;;;;;;;8.17;4.13;;;;;;;16.84;100.00;100560.25;5987967;23;20209;-89
2022/10/27 09:59:01;;;;;;;6.77;3.97;;;;;;;16.93;100.00;100560.69;6014690;23;20288;-87
2022/10/27 10:01:48;;;;;;;5.03;3.67;;;;;;;17.05;100.00;100566.91;6014534;23;20210;-88
2022/10/27 10:04:25;;;;;;;6.57;4.17;;;;;;;17.16;100.00;100572.28;6014209;23;20720;-88
2022/10/27 10:07:01;;;;;;;6.37;3.93;;;;;;;17.26;100.00;100566.25;6015752;23;20213;-88
2022/10/27 10:09:30;;;;;;;4.97;3.70;;;;;;;17.45;100.00;100556.06;5992644;23;20209;-88
2022/10/27 10:12:12;;;;;;;5.03;3.30;;;;;;;17.57;100.00;100556.81;5993232;23;20205;-89
2022/10/27 10:14:42;;;;;;;5.50;3.60;;;;;;;17.62;100.00;100558.84;6039159;23;20225;-88
2022/10/27 10:17:26;;;;;;;5.40;3.90;;;;;;;17.76;100.00;100558.28;5992584;23;20210;-87
2022/10/27 10:19:56;;;;;;;5.73;3.70;;;;;;;17.87;100.00;100553.88;5992803;23;20226;-89
2022/10/27 10:22:30;;;;;;;4.13;3.50;;;;;;;17.98;100.00;100545.66;5992076;23;20228;-88
2022/10/27 10:24:59;;;;;;;6.27;4.07;;;;;;;17.86;100.00;100553.06;5992672;23;20214;-88
2022/10/27 10:27:31;;;;;;;6.83;4.20;;;;;;;18.02;100.00;100559.53;6015506;23;20287;-89
2022/10/27 10:30:01;;;;;;;7.77;4.00;;;;;;;18.15;100.00;100550.28;6015742;23;20215;-88
2022/10/27 10:32:32;;;;;;;7.40;3.33;;;;;;;18.28;100.00;100549.94;6062399;23;20209;-87
2022/10/27 10:34:59;;;;;;;7.33;4.03;;;;;;;18.42;100.00;100545.81;6016269;23;20218;-89
2022/10/27 10:37:38;;;;;;;4.37;3.40;;;;;;;18.29;100.00;100552.38;5984100;23;20215;-90
2022/10/27 10:40:23;;;;;;;9.47;3.73;;;;;;;18.30;100.00;100548.59;5992100;23;20215;-89
2022/10/27 10:43:04;;;;;;;7.03;3.00;;;;;;;18.43;100.00;100545.53;5992934;23;20234;-91
2022/10/27 10:45:33;;;;;;;5.03;3.53;;;;;;;18.58;100.00;100544.16;6039578;23;20208;-89
2022/10/27 10:48:05;;;;;;;6.87;3.67;;;;;;;18.73;100.00;100547.91;5992652;23;20268;-90
2022/10/27 10:50:43;;;;;;;6.30;3.40;;;;;;;18.88;100.00;100550.00;6015226;23;20600;-88
2022/10/27 10:53:22;;;;;;;7.90;3.40;;;;;;;19.03;100.00;100546.66;6019884;23;20239;-88
2022/10/27 10:55:56;;;;;;;4.40;3.40;;;;;;;19.10;100.00;100545.41;6021084;23;20220;-88
2022/10/27 10:58:24;;;;;;;4.60;3.47;;;;;;;19.29;100.00;100548.59;6019173;23;20208;-88
2022/10/27 11:01:03;;;;;;;4.47;3.33;;;;;;;19.49;100.00;100546.16;5995916;23;20211;-86
2022/10/27 11:03:36;;;;;;;5.83;3.73;;;;;;;19.54;100.00;100540.75;6019219;23;20231;-89
2022/10/27 11:06:04;;;;;;;4.67;3.77;;;;;;;19.48;100.00;100533.63;5996171;23;20237;-87
2022/10/27 11:08:36;;;;;;;6.47;3.70;;;;;;;19.57;100.00;100532.09;6043136;23;20212;-86
2022/10/27 11:11:19;;;;;;;12.30;3.53;;;;;;;19.68;100.00;100535.72;6021767;23;20217;-86
2022/10/27 11:13:50;;;;;;;7.47;3.50;;;;;;;19.74;100.00;100531.97;6019711;23;20215;-86
2022/10/27 11:16:17;;;;;;;4.73;3.50;;;;;;;19.86;100.00;100537.25;6043024;23;20273;-88
2022/10/27 11:18:46;;;;;;;5.10;3.57;;;;;;;19.95;100.00;100527.53;6019332;23;20291;-86
2022/10/27 11:21:17;;;;;;;5.10;3.40;;;;;;;19.94;100.00;100529.44;6066805;23;20671;-85
2022/10/27 11:23:46;;;;;;;7.20;3.73;;;;;;;19.96;100.00;100526.47;6068036;23;20696;-87
2022/10/27 11:26:15;;;;;;;5.10;3.73;;;;;;;19.99;100.00;100521.31;6042773;23;20714;-88
2022/10/27 11:28:56;;;;;;;8.57;4.00;;;;;;;19.85;100.00;100514.69;6044044;23;20193;-88
2022/10/27 11:32:00;;;;;;;6.53;3.30;;;;;;;20.02;100.00;100520.78;6043603;23;20217;-88
2022/10/27 11:34:46;;;;;;;5.60;3.60;;;;;;;20.17;100.00;100520.91;6042957;23;20278;-88
2022/10/27 11:37:25;;;;;;;6.73;3.63;;;;;;;20.04;100.00;100507.75;6043772;23;20213;-88
2022/10/27 11:40:16;;;;;;;7.60;3.63;;;;;;;20.14;100.00;100520.63;6043459;23;20222;-88
2022/10/27 11:43:05;;;;;;;5.70;3.67;;;;;;;20.04;100.00;100512.38;6004929;23;20201;-87
2022/10/27 11:45:39;;;;;;;5.73;3.57;;;;;;;20.01;100.00;100505.56;5996079;23;20244;-88
2022/10/27 11:48:20;;;;;;;6.13;3.30;;;;;;;20.08;100.00;100499.91;6019165;23;20211;-87
2022/10/27 11:50:53;;;;;;;4.47;3.30;;;;;;;20.16;100.00;100502.13;6018702;23;20214;-85
2022/10/27 11:53:19;;;;;;;3.90;3.37;;;;;;;19.93;100.00;100510.66;6036898;23;20801;-86
2022/10/27 11:55:58;;;;;;;5.30;3.40;;;;;;;20.01;100.00;100502.03;6037356;23;20216;-86
2022/10/27 11:59:04;;;;;;;4.10;3.70;;;;;;;19.91;100.00;100501.94;6037040;23;20280;-85
2022/10/27 12:02:00;;;;;;;4.90;3.07;;;;;;;20.17;100.00;100485.53;6037352;23;20239;-87
2022/10/27 12:04:52;;;;;;;6.27;3.63;;;;;;;20.23;100.00;100500.00;5966452;23;20276;-86
2022/10/27 12:07:34;;;;;;;6.83;3.40;;;;;;;20.28;100.00;100485.63;6013467;23;20237;-85
2022/10/27 12:10:16;;;;;;;3.23;2.90;;;;;;;20.43;100.00;100485.75;6014030;23;20220;-88
2022/10/27 12:12:44;;;;;;;7.77;3.40;;;;;;;20.49;100.00;100487.41;6013122;23;20261;-86
2022/10/27 12:15:26;;;;;;;5.80;3.70;;;;;;;20.50;100.00;100480.88;5990715;23;20220;-86
2022/10/27 12:17:59;;;;;;;5.23;3.00;;;;;;;20.64;100.00;100479.31;6014482;23;20263;-87
2022/10/27 12:20:37;;;;;;;4.67;3.67;;;;;;;20.69;99.88;100475.78;6015364;23;20233;-85
2022/10/27 12:23:13;;;;;;;5.67;4.17;;;;;;;20.62;99.76;100473.34;6037923;23;20213;-86
2022/10/27 12:25:45;;;;;;;4.80;3.80;;;;;;;20.63;100.00;100475.75;5990862;23;20217;-86
2022/10/27 12:28:13;;;;;;;5.50;4.43;;;;;;;20.72;99.21;100470.63;5990310;23;20547;-86
2022/10/27 12:30:42;;;;;;;8.23;5.20;;;;;;;20.56;100.00;100466.22;5990931;23;20236;-86
2022/10/27 12:33:21;;;;;;;5.53;4.50;;;;;;;20.57;100.00;100470.59;6014388;23;20697;-86
2022/10/27 12:36:00;;;;;;;6.80;6.10;;;;;;;20.38;100.00;100469.38;6014688;23;20216;-85
2022/10/27 12:39:09;;;;;;;8.77;6.20;;;;;;;20.32;100.00;100473.16;5999318;23;20205;-86
2022/10/27 12:41:45;;;;;;;7.20;6.10;;;;;;;19.81;100.00;100474.66;5965254;23;20216;-89
2022/10/27 12:44:48;;;;;;;7.73;6.00;;;;;;;19.75;100.00;100465.66;6014187;23;20207;-89
2022/10/27 12:47:34;;;;;;;8.33;6.70;;;;;;;19.78;100.00;100473.31;6014379;23;20239;-88
2022/10/27 12:50:39;;;;;;;8.60;6.87;;;;;;;19.70;100.00;100458.25;6037659;23;20210;-87
2022/10/27 12:53:36;;;;;;;6.60;6.00;;;;;;;19.96;100.00;100469.34;5928099;23;20706;-87
2022/10/27 12:56:24;;;;;;;7.83;6.60;;;;;;;20.01;100.00;100466.66;6043034;23;20289;-88
2022/10/27 12:58:56;;;;;;;7.73;6.87;;;;;;;20.05;100.00;100460.44;6042383;23;20209;-88
2022/10/27 13:01:57;;;;;;;8.53;6.63;;;;;;;20.01;100.00;100459.34;6019317;23;20692;-89
2022/10/27 13:04:53;;;;;;;7.07;6.00;;;;;;;19.96;100.00;100459.28;6031759;23;20280;-89
2022/10/27 13:07:29;;;;;;;7.33;6.70;;;;;;;19.74;100.00;100453.94;6019178;23;20208;-90
2022/10/27 13:10:11;;;;;;;8.90;6.67;;;;;;;19.66;100.00;100464.47;6042868;23;20269;-87
2022/10/27 13:13:03;;;;;;;7.00;6.30;;;;;;;19.85;100.00;100463.00;6042063;23;20272;-87
2022/10/27 13:15:39;;;;;;;7.07;5.97;;;;;;;19.81;100.00;100461.06;6042525;23;20228;-87
2022/10/27 13:18:16;;;;;;;7.73;6.20;;;;;;;19.77;100.00;100449.91;6067439;23;20221;-85
2022/10/27 13:21:20;;;;;;;7.37;5.83;;;;;;;19.72;100.00;100453.41;6041077;23;20231;-87
2022/10/27 13:24:07;;;;;;;7.43;5.50;;;;;;;19.70;100.00;100460.97;6018339;23;20284;-88
2022/10/27 13:26:45;;;;;;;6.80;6.10;;;;;;;19.68;100.00;100459.63;5995418;23;20648;-87
2022/10/27 13:29:25;;;;;;;7.53;5.80;;;;;;;19.65;100.00;100450.06;6044479;23;20216;-88
2022/10/27 13:32:26;;;;;;;8.07;6.10;;;;;;;19.52;100.00;100447.78;6042754;23;20602;-89
2022/10/27 13:34:59;;;;;;;6.80;6.03;;;;;;;19.38;100.00;100451.97;6043204;23;20211;-87
2022/10/27 13:37:48;;;;;;;8.10;7.30;;;;;;;19.39;100.00;100448.19;6042766;23;20228;-89
2022/10/27 13:40:18;;;;;;;9.37;7.27;;;;;;;19.33;100.00;100447.31;6020104;23;20219;-89
2022/10/27 13:42:46;;;;;;;9.40;6.93;;;;;;;19.27;100.00;100445.59;6044371;23;20651;-90
2022/10/27 13:45:25;;;;;;;8.00;7.30;;;;;;;19.25;100.00;100441.53;6021646;23;20287;-89
2022/10/27 13:48:08;;;;;;;10.47;7.07;;;;;;;19.26;100.00;100444.00;6043568;23;20212;-88
2022/10/27 13:50:40;;;;;;;7.53;6.87;;;;;;;19.19;100.00;100451.50;6042607;23;20206;-88
2022/10/27 13:53:19;;;;;;;9.53;7.70;;;;;;;19.21;100.00;100453.97;6043226;23;20290;-87
2022/10/27 13:55:52;;;;;;;8.07;7.13;;;;;;;19.09;100.00;100447.88;6043698;23;20249;-87
2022/10/27 13:58:18;;;;;;;8.70;7.53;;;;;;;18.87;100.00;100451.44;6006246;23;20286;-87
2022/10/27 14:01:03;;;;;;;7.40;6.70;;;;;;;18.76;100.00;100452.38;6043695;23;20210;-88
2022/10/27 14:03:35;;;;;;;8.17;7.10;;;;;;;18.61;100.00;100449.50;6069369;23;20221;-89
2022/10/27 14:06:02;;;;;;;9.37;5.60;;;;;;;18.74;100.00;100446.41;6067795;23;20200;-87
2022/10/27 14:08:30;;;;;;;7.40;5.30;;;;;;;18.62;100.00;100447.59;6044678;23;20211;-90
2022/10/27 14:11:07;;;;;;;6.93;4.90;;;;;;;18.64;100.00;100451.72;6021111;23;20217;-91
2022/10/27 14:13:41;;;;;;;8.73;4.60;;;;;;;18.43;100.00;100449.75;6019908;23;20207;-90
2022/10/27 14:16:15;;;;;;;7.13;4.73;;;;;;;18.42;100.00;100445.44;6020605;23;20235;-90
2022/10/27 14:18:42;;;;;;;5.77;5.17;;;;;;;18.34;100.00;100445.84;5998230;23;20664;-94
2022/10/27 14:21:17;;;;;;;5.43;4.73;;;;;;;18.19;100.00;100445.66;6021303;23;20209;-91
2022/10/27 14:23:44;;;;;;;6.70;4.13;;;;;;;18.07;100.00;100453.88;6021207;23;20210;-92
2022/10/27 14:26:34;;;;;;;8.90;4.53;;;;;;;17.97;100.00;100457.25;6043875;23;20216;-91
2022/10/27 14:29:01;;;;;;;8.23;4.00;;;;;;;17.98;100.00;100458.06;6021409;23;20280;-91
2022/10/27 14:31:30;;;;;;;5.13;4.20;;;;;;;17.88;100.00;100458.72;6021088;23;20207;-91
2022/10/27 14:34:15;;;;;;;8.00;4.10;;;;;;;17.87;100.00;100469.84;6020012;23;20220;-91
2022/10/27 14:36:41;;;;;;;9.43;4.00;;;;;;;17.85;100.00;100461.13;6020803;23;20346;-91
2022/10/27 14:39:11;;;;;;;7.03;4.07;;;;;;;17.79;100.00;100459.38;6020896;23;20731;-91
2022/10/27 14:41:43;;;;;;;7.63;4.00;;;;;;;17.81;100.00;100468.94;6044586;23;20219;-91
2022/10/27 14:44:21;;;;;;;9.43;3.87;;;;;;;17.82;100.00;100461.63;5997409;23;20215;-91
2022/10/27 14:46:49;;;;;;;4.93;3.57;;;;;;;17.87;100.00;100454.38;6020995;23;20707;-91
2022/10/27 14:49:29;;;;;;;8.03;3.93;;;;;;;17.81;100.00;100460.81;6021380;23;20211;-90
2022/10/27 14:52:03;;;;;;;4.53;3.63;;;;;;;17.77;100.00;100456.94;6044803;23;20242;-89
2022/10/27 14:54:30;;;;;;;3.60;3.30;;;;;;;17.65;100.00;100453.47;5997756;23;20293;-91
2022/10/27 14:57:20;;;;;;;8.23;4.00;;;;;;;17.60;100.00;100453.38;6020863;23;20228;-91
2022/10/27 14:59:47;;;;;;;6.90;3.80;;;;;;;17.54;100.00;100457.06;5997401;23;20785;-91
2022/10/27 15:02:14;;;;;;;7.50;3.80;;;;;;;17.48;100.00;100456.16;6020426;23;20210;-92
2022/10/27 15:04:41;;;;;;;8.33;3.80;;;;;;;17.38;100.00;100461.41;5997808;23;20222;-91
2022/10/27 15:07:14;;;;;;;4.87;3.50;;;;;;;17.24;100.00;100457.34;6021881;23;20203;-91
2022/10/27 15:09:44;;;;;;;5.77;3.87;;;;;;;17.21;100.00;100457.84;6021156;23;20268;-91
2022/10/27 15:12:27;;;;;;;6.97;3.70;;;;;;;17.11;100.00;100460.34;6023908;23;20217;-91
2022/10/27 15:14:55;;;;;;;3.87;3.57;;;;;;;17.06;100.00;100462.97;6044789;23;20218;-91
2022/10/27 15:17:29;;;;;;;5.27;3.93;;;;;;;17.01;100.00;100463.69;6020933;23;20205;-91
2022/10/27 15:19:57;;;;;;;6.07;3.90;;;;;;;16.90;100.00;100466.41;6020702;23;20236;-92
2022/10/27 15:22:25;;;;;;;5.93;3.90;;;;;;;16.84;100.00;100468.22;6020706;23;20228;-91
2022/10/27 15:24:52;;;;;;;5.60;4.23;;;;;;;16.70;100.00;100459.53;6020619;23;20687;-91
2022/10/27 15:27:19;;;;;;;6.77;5.27;;;;;;;16.60;100.00;100458.53;6044625;23;20213;-91
2022/10/27 15:29:49;;;;;;;5.83;5.00;;;;;;;16.46;100.00;100462.53;6020907;23;20209;-92
2022/10/27 15:32:20;;;;;;;5.00;4.50;;;;;;;16.23;100.00;100458.78;6018904;23;20670;-91
2022/10/27 15:34:48;;;;;;;6.90;4.77;;;;;;;16.18;100.00;100455.97;5997396;23;20725;-91
2022/10/27 15:37:29;;;;;;;5.10;4.63;;;;;;;16.01;100.00;100460.41;5997412;23;20236;-92
2022/10/27 15:40:25;;;;;;;8.10;5.07;;;;;;;15.79;100.00;100460.19;6044025;23;20219;-92
2022/10/27 15:42:52;;;;;;;8.03;5.00;;;;;;;15.67;100.00;100462.06;6044025;23;20240;-91
2022/10/27 15:45:28;;;;;;;10.07;5.63;;;;;;;15.63;100.00;100462.75;6020793;23;20208;-92
2022/10/27 15:47:55;;;;;;;8.97;7.33;;;;;;;15.57;100.00;100466.38;6044312;23;20209;-91
2022/10/27 15:50:30;;;;;;;8.10;6.40;;;;;;;15.47;100.00;100472.31;6043755;23;20213;-92
2022/10/27 15:53:15;;;;;;;8.40;6.87;;;;;;;15.37;100.00;100470.16;5996997;23;20232;-91
2022/10/27 15:56:06;;;;;;;9.67;7.63;;;;;;;15.30;100.00;100469.44;5997276;23;20239;-96
2022/10/27 15:58:37;;;;;;;10.50;8.33;;;;;;;15.21;100.00;100464.59;5996875;23;20220;-92
2022/10/27 16:01:29;;;;;;;11.43;9.57;;;;;;;15.14;100.00;100463.88;5997004;23;20231;-91
2022/10/27 16:04:02;;;;;;;11.30;9.53;;;;;;;15.06;100.00;100458.78;5996843;23;20217;-92
2022/10/27 16:06:33;;;;;;;10.57;9.50;;;;;;;14.94;100.00;100470.34;6020184;23;20201;-92
2022/10/27 16:09:04;;;;;;;11.33;9.90;;;;;;;14.78;100.00;100472.88;5997420;23;20213;-92
2022/10/27 16:11:34;;;;;;;11.00;9.90;;;;;;;14.59;100.00;100468.53;5998213;23;20215;-92
2022/10/27 16:14:06;;;;;;;11.90;9.87;;;;;;;14.51;100.00;100473.16;6020819;23;20209;-91
2022/10/27 16:16:34;;;;;;;11.80;10.60;;;;;;;14.46;100.00;100464.91;6020890;23;20201;-92
2022/10/27 16:19:02;;;;;;;14.73;10.70;;;;;;;14.41;100.00;100469.34;5997117;23;20205;-92
2022/10/27 16:21:31;;;;;;;12.43;11.23;;;;;;;14.25;100.00;100473.41;5995341;23;20206;-92
2022/10/27 16:24:07;;;;;;;12.40;10.30;;;;;;;14.17;100.00;100473.72;5996687;23;20184;-91
2022/10/27 16:26:34;;;;;;;11.93;10.63;;;;;;;14.17;100.00;100481.81;6019093;23;20205;-93
2022/10/27 16:29:01;;;;;;;12.00;10.80;;;;;;;14.03;100.00;100474.88;6019504;23;20205;-86
2022/10/27 16:31:28;;;;;;;11.27;10.10;;;;;;;13.90;100.00;100475.84;6017362;23;20221;-87
2022/10/27 16:33:55;;;;;;;12.20;11.03;;;;;;;13.83;100.00;100474.22;6061823;23;20204;-86
2022/10/27 16:36:22;;;;;;;12.27;10.43;;;;;;;13.74;100.00;100479.06;6061764;23;20277;-85
2022/10/27 16:38:49;;;;;;;12.60;11.30;;;;;;;13.69;100.00;100481.59;6017408;23;20213;-86
2022/10/27 16:41:23;;;;;;;13.70;11.40;;;;;;;13.60;100.00;100485.59;6017122;23;20212;-89
2022/10/27 16:43:50;;;;;;;12.93;11.43;;;;;;;13.57;100.00;100489.56;6067315;23;20212;-90
2022/10/27 16:46:17;;;;;;;15.30;12.53;;;;;;;13.49;100.00;100494.38;6066754;23;20288;-89
2022/10/27 16:48:43;;;;;;;15.07;13.57;;;;;;;13.51;100.00;100495.00;6067224;23;20209;-89
2022/10/27 16:51:14;;;;;;;15.97;14.27;;;;;;;13.43;100.00;100490.69;6067025;23;20213;-88
2022/10/27 16:53:41;;;;;;;16.50;14.17;;;;;;;13.31;100.00;100488.91;6041884;23;20523;-88
2022/10/27 16:56:10;;;;;;;16.43;14.83;;;;;;;13.21;100.00;100490.19;6017656;23;20269;-88
2022/10/27 16:58:41;;;;;;;15.33;13.93;;;;;;;13.17;100.00;100497.06;6041611;23;20598;-89
2022/10/27 17:01:20;;;;;;;16.50;14.70;;;;;;;13.09;100.00;100491.91;6066868;23;20236;-88
2022/10/27 17:03:47;;;;;;;17.77;16.07;;;;;;;13.06;100.00;100502.28;6066638;23;20260;-87
2022/10/27 17:06:15;;;;;;;16.70;15.10;;;;;;;12.97;100.00;100506.25;6016519;23;20208;-88
2022/10/27 17:08:42;;;;;;;17.73;15.77;;;;;;;12.87;100.00;100495.94;6042063;23;20650;-87
2022/10/27 17:11:11;;;;;;;16.97;15.37;;;;;;;12.82;100.00;100498.44;6066957;23;20208;-88
2022/10/27 17:13:38;;;;;;;15.53;14.03;;;;;;;12.75;100.00;100503.00;6042149;23;20295;-88
2022/10/27 17:16:10;;;;;;;16.30;14.60;;;;;;;12.67;100.00;100501.38;6039303;23;20209;-89
2022/10/27 17:18:36;;;;;;;15.90;14.40;;;;;;;12.58;100.00;100493.78;6041594;23;20212;-88
2022/10/27 17:21:03;;;;;;;16.20;14.47;;;;;;;12.59;100.00;100503.50;6066902;23;20213;-92
2022/10/27 17:23:30;;;;;;;15.93;14.40;;;;;;;12.50;100.00;100508.28;5994877;23;20280;-91
2022/10/27 17:26:01;;;;;;;16.57;14.87;;;;;;;12.44;100.00;100502.91;6041350;23;20213;-91
2022/10/27 17:28:28;;;;;;;15.83;14.13;;;;;;;12.39;100.00;100502.72;6018380;23;20220;-90
2022/10/27 17:31:04;;;;;;;13.97;12.57;;;;;;;12.28;100.00;100502.31;6018917;23;20216;-90
2022/10/27 17:33:31;;;;;;;16.57;14.93;;;;;;;12.20;100.00;100502.53;6018841;23;20219;-90
2022/10/27 17:36:06;;;;;;;16.20;14.33;;;;;;;12.18;100.00;100501.06;6039508;23;20228;-88
2022/10/27 17:38:44;;;;;;;16.83;15.13;;;;;;;12.09;100.00;100505.84;6013903;23;20742;-90
2022/10/27 17:41:11;;;;;;;17.27;15.13;;;;;;;12.01;100.00;100502.56;6064386;23;20285;-90
2022/10/27 17:43:38;;;;;;;16.83;14.77;;;;;;;12.00;100.00;100514.31;6041409;23;20220;-91
2022/10/27 17:46:15;;;;;;;15.93;14.43;;;;;;;11.93;100.00;100508.13;6040686;23;20218;-88
2022/10/27 17:48:53;;;;;;;16.97;15.27;;;;;;;11.81;100.00;100516.81;6066665;23;20218;-91
2022/10/27 17:51:22;;;;;;;16.80;15.10;;;;;;;11.73;100.00;100518.88;6041761;23;20219;-93
2022/10/27 17:53:50;;;;;;;17.60;15.90;;;;;;;11.67;100.00;100515.09;6018318;23;20211;-91